TimeCST,TemperatureF,Dew PointF,Humidity,Sea Level PressureIn,VisibilityMPH,Wind Direction,Wind SpeedMPH,Gust SpeedMPH,PrecipitationIn,Events,Conditions,WindDirDegrees,DateUTC
12:53 AM,18.0,10.9,74,29.95,10.0,NW,24.2,33.4,N/A,,Overcast,310,2012-11-11 06:53:00
1:53 AM,17.1,10.0,74,29.97,10.0,NW,19.6,-,N/A,,Clear,310,2012-11-11 07:53:00
2:53 AM,16.0,9.0,74,29.98,10.0,WNW,19.6,-,N/A,,Partly Cloudy,300,2012-11-11 08:53:00
3:53 AM,16.0,8.1,71,30.00,10.0,NW,23.0,-,N/A,,Clear,310,2012-11-11 09:53:00
4:53 AM,14.0,7.0,74,30.04,10.0,NW,19.6,27.6,N/A,,Clear,310,2012-11-11 10:53:00
5:53 AM,12.9,5.0,71,30.06,10.0,WNW,19.6,-,N/A,,Clear,300,2012-11-11 11:53:00
6:53 AM,12.0,3.9,70,30.07,10.0,WNW,16.1,-,N/A,,Clear,300,2012-11-11 12:53:00
7:53 AM,10.9,3.9,73,30.09,10.0,West,15.0,-,N/A,,Clear,280,2012-11-11 13:53:00
8:53 AM,12.9,6.1,74,30.09,10.0,West,16.1,-,N/A,,Clear,280,2012-11-11 14:53:00
10:53 AM,18.0,7.0,62,30.10,10.0,NW,19.6,27.6,N/A,,Clear,310,2012-11-11 16:53:00
11:53 AM,19.9,8.1,60,30.09,10.0,WNW,24.2,29.9,N/A,,Clear,300,2012-11-11 17:53:00
12:53 PM,21.9,9.0,58,30.07,10.0,WNW,27.6,-,N/A,,Clear,290,2012-11-11 18:53:00
1:53 PM,23.0,10.0,58,30.06,10.0,WNW,25.3,32.2,N/A,,Clear,300,2012-11-11 19:53:00
2:53 PM,23.0,10.9,60,30.07,10.0,WNW,25.3,-,N/A,,Clear,290,2012-11-11 20:53:00
3:53 PM,24.1,12.0,60,30.09,10.0,WNW,23.0,-,N/A,,Clear,290,2012-11-11 21:53:00
4:53 PM,21.9,12.0,66,30.11,10.0,WNW,20.7,-,N/A,,Clear,300,2012-11-11 22:53:00
5:53 PM,21.0,10.9,65,30.14,10.0,WNW,15.0,-,N/A,,Clear,300,2012-11-11 23:53:00
6:53 PM,19.9,10.9,68,30.16,10.0,WNW,15.0,-,N/A,,Clear,290,2012-11-12 00:53:00
7:53 PM,18.0,10.9,74,30.18,10.0,West,11.5,-,N/A,,Clear,280,2012-11-12 01:53:00
8:53 PM,17.1,9.0,71,30.19,10.0,West,12.7,-,N/A,,Clear,280,2012-11-12 02:53:00
9:53 PM,17.1,10.0,74,30.19,10.0,West,17.3,-,N/A,,Clear,280,2012-11-12 03:53:00
10:53 PM,17.1,10.0,74,30.20,10.0,West,13.8,-,N/A,,Clear,280,2012-11-12 04:53:00
11:53 PM,17.1,10.0,74,30.20,10.0,West,13.8,-,N/A,,Clear,280,2012-11-12 05:53:00